Time;durP1;ratioP1;P1;durP2;ratioP2;P2;SDS_P1;SDS_P2;PMS_P1;PMS_P2;Temp;Humidity;BMP_temperature;BMP_pressure;BME280_temperature;BME280_humidity;BME280_pressure;Samples;Min_cycle;Max_cycle;Signal;HPM_P1;HPM_P2
2022/05/09 00:02:13;;;;;;;2.10;2.00;;;;;;;;;;4936512;29;20463;-79
2022/05/09 00:04:39;;;;;;;3.80;2.30;;;;;;;;;;4940853;29;20550;-79
2022/05/09 00:07:05;;;;;;;2.33;2.13;;;;;;;;;;4935472;29;20039;-80
2022/05/09 00:09:31;;;;;;;2.30;2.20;;;;;;;;;;4922872;29;20290;-78
2022/05/09 00:11:57;;;;;;;2.45;2.35;;;;;;;;;;4944211;29;20031;-78
2022/05/09 00:14:23;;;;;;;2.00;1.90;;;;;;;;;;4943813;29;20429;-77
2022/05/09 00:16:51;;;;;;;2.42;2.10;;;;;;;;;;4923909;29;20042;-78
2022/05/09 00:19:17;;;;;;;2.40;2.20;;;;;;;;;;4939050;29;20043;-78
2022/05/09 00:21:43;;;;;;;2.15;2.03;;;;;;;;;;4941140;29;20050;-78
2022/05/09 00:24:12;;;;;;;2.45;2.25;;;;;;;;;;4947244;29;20051;-79
2022/05/09 00:26:44;;;;;;;3.88;1.95;;;;;;;;;;4926049;29;20083;-79
2022/05/09 00:29:14;;;;;;;2.05;1.95;;;;;;;;;;4921951;29;20070;-78
2022/05/09 00:31:43;;;;;;;2.60;2.40;;;;;;;;;;4924916;29;20051;-78
2022/05/09 00:34:10;;;;;;;2.20;2.00;;;;;;;;;;4945039;29;20550;-78
2022/05/09 00:36:36;;;;;;;2.10;2.00;;;;;;;;;;4909705;29;20104;-79
2022/05/09 00:39:03;;;;;;;2.00;1.90;;;;;;;;;;4941352;29;20105;-80
2022/05/09 00:41:29;;;;;;;2.30;2.03;;;;;;;;;;4923348;29;20414;-77
2022/05/09 00:43:55;;;;;;;1.90;1.80;;;;;;;;;;4939742;29;20062;-77
2022/05/09 00:46:21;;;;;;;2.33;2.10;;;;;;;;;;4942070;29;20388;-77
2022/05/09 00:48:47;;;;;;;2.00;1.80;;;;;;;;;;4939524;29;20044;-77
2022/05/09 00:51:18;;;;;;;2.10;2.00;;;;;;;;;;4941235;29;20044;-76
2022/05/09 00:53:44;;;;;;;1.88;1.77;;;;;;;;;;4922629;29;20467;-78
2022/05/09 14:23:14;;;;;;;2.60;2.28;;;;;;;;;;4944001;29;20061;-73
2022/05/09 14:31:39;;;;;;;1.90;1.80;;;;;;;;;;4933105;29;20475;-73
2022/05/09 14:34:05;;;;;;;;;;;;;;;;;;4923635;29;20500;-72
2022/05/09 14:36:34;;;;;;;2.40;2.30;;;;;;;;;;4942581;29;20357;-73
2022/05/09 14:39:00;;;;;;;2.50;2.30;;;;;;;;;;4944062;29;20039;-73
2022/05/09 14:41:44;;;;;;;3.08;2.47;;;;;;;;;;4944251;29;20111;-73
2022/05/09 14:44:11;;;;;;;2.53;2.28;;;;;;;;;;4945420;29;20082;-73
2022/05/09 14:46:41;;;;;;;2.92;2.50;;;;;;;;;;4945659;29;20510;-75
2022/05/09 14:49:08;;;;;;;2.80;2.60;;;;;;;;;;4941891;29;20516;-74
2022/05/09 14:51:35;;;;;;;2.30;2.20;;;;;;;;;;4925068;29;20043;-76
2022/05/09 14:54:01;;;;;;;2.15;2.05;;;;;;;;;;4937519;29;20050;-74
2022/05/09 14:59:18;;;;;;;2.63;2.42;;;;;;;;;;4940403;29;20523;-79
2022/05/09 15:01:51;;;;;;;4.38;2.22;;;;;;;;;;4915399;29;20095;-78
2022/05/09 15:04:18;;;;;;;2.55;2.10;;;;;;;;;;4909294;29;20115;-77
2022/05/09 15:06:43;;;;;;;4.20;2.28;;;;;;;;;;4937446;29;20035;-77
2022/05/09 15:09:09;;;;;;;2.15;2.05;;;;;;;;;;4939305;29;20046;-80
2022/05/09 15:11:37;;;;;;;2.38;2.00;;;;;;;;;;4926891;29;20031;-79
2022/05/09 15:14:03;;;;;;;2.30;2.10;;;;;;;;;;4943595;29;20043;-80
2022/05/09 15:16:30;;;;;;;1.80;1.70;;;;;;;;;;4950332;29;20046;-82
2022/05/09 15:18:56;;;;;;;3.72;2.30;;;;;;;;;;4951240;29;20043;-80
2022/05/09 15:21:25;;;;;;;2.83;2.10;;;;;;;;;;4949218;29;20455;-81
2022/05/09 15:23:53;;;;;;;2.40;2.20;;;;;;;;;;4948106;29;20135;-80
2022/05/09 15:26:19;;;;;;;1.92;1.83;;;;;;;;;;4950252;29;20047;-81
2022/05/09 15:28:48;;;;;;;2.40;2.00;;;;;;;;;;4933673;29;20035;-79
2022/05/09 15:31:14;;;;;;;2.00;1.80;;;;;;;;;;4949409;29;20047;-80
2022/05/09 15:33:40;;;;;;;2.65;2.10;;;;;;;;;;4934284;29;20131;-80
2022/05/09 15:36:06;;;;;;;3.67;1.80;;;;;;;;;;4934600;29;20051;-79
2022/05/09 15:38:32;;;;;;;3.80;1.65;;;;;;;;;;4951070;29;20050;-80
2022/05/09 15:41:02;;;;;;;1.70;1.60;;;;;;;;;;4954784;28;20047;-80
2022/05/09 15:43:29;;;;;;;2.00;1.80;;;;;;;;;;4939272;29;20482;-80
2022/05/09 15:45:58;;;;;;;2.50;2.30;;;;;;;;;;4955309;29;20071;-81
2022/05/09 15:48:25;;;;;;;4.47;1.90;;;;;;;;;;4953624;29;20054;-81
2022/05/09 15:50:57;;;;;;;1.98;1.73;;;;;;;;;;4952893;29;20051;-80
2022/05/09 15:53:26;;;;;;;1.80;1.70;;;;;;;;;;4951280;29;20138;-80
2022/05/09 15:55:55;;;;;;;2.38;1.90;;;;;;;;;;4935202;29;20438;-81
2022/05/09 15:58:21;;;;;;;1.85;1.75;;;;;;;;;;4919740;29;20075;-80
2022/05/09 16:00:48;;;;;;;2.00;1.90;;;;;;;;;;4952508;29;20110;-80
2022/05/09 16:03:17;;;;;;;2.72;2.53;;;;;;;;;;4952179;29;20043;-80
2022/05/09 16:11:24;;;;;;;2.78;2.53;;;;;;;;;;4947153;29;20054;-81
2022/05/09 16:13:50;;;;;;;2.55;1.98;;;;;;;;;;4917083;29;20047;-81
2022/05/09 16:16:26;;;;;;;3.65;2.85;;;;;;;;;;4946059;29;20050;-81
2022/05/09 16:18:52;;;;;;;3.85;2.17;;;;;;;;;;4935803;29;20071;-81
2022/05/09 16:21:18;;;;;;;2.53;2.42;;;;;;;;;;4917353;29;20071;-81
2022/05/09 16:23:44;;;;;;;2.20;2.10;;;;;;;;;;4902416;29;20066;-83
2022/05/09 16:26:10;;;;;;;2.17;2.00;;;;;;;;;;4935560;29;20048;-81
2022/05/09 16:28:37;;;;;;;3.08;2.03;;;;;;;;;;4935485;29;20107;-81
2022/05/09 16:31:03;;;;;;;3.17;2.90;;;;;;;;;;4918104;29;20050;-81
2022/05/09 16:33:29;;;;;;;4.05;3.40;;;;;;;;;;4934174;29;20042;-81
2022/05/09 16:35:55;;;;;;;3.10;2.90;;;;;;;;;;4916889;29;20040;-82
2022/05/09 16:38:21;;;;;;;2.80;2.60;;;;;;;;;;4933175;29;20134;-82
2022/05/09 16:40:47;;;;;;;4.40;3.58;;;;;;;;;;4900820;29;20126;-81
2022/05/09 16:43:14;;;;;;;2.78;2.58;;;;;;;;;;4916335;29;20425;-82
2022/05/09 16:45:40;;;;;;;3.00;2.72;;;;;;;;;;4900972;29;20074;-81
2022/05/09 16:48:12;;;;;;;3.83;2.60;;;;;;;;;;4945912;29;20045;-82
2022/05/09 16:50:38;;;;;;;3.40;3.10;;;;;;;;;;4937479;28;20133;-81
2022/05/09 16:53:04;;;;;;;3.10;2.90;;;;;;;;;;4954763;29;20045;-81
2022/05/09 16:55:32;;;;;;;3.20;3.00;;;;;;;;;;4953830;29;20099;-81
2022/05/09 16:57:59;;;;;;;2.92;2.72;;;;;;;;;;4954970;29;20047;-81
2022/05/09 17:00:25;;;;;;;5.03;3.40;;;;;;;;;;4926331;29;20134;-80
2022/05/09 17:02:51;;;;;;;4.53;4.20;;;;;;;;;;4944214;29;20047;-81
2022/05/09 17:05:17;;;;;;;4.28;3.92;;;;;;;;;;4938919;29;20609;-82
2022/05/09 17:07:44;;;;;;;3.67;3.05;;;;;;;;;;4923044;29;20043;-81
2022/05/09 17:10:10;;;;;;;3.53;3.25;;;;;;;;;;4955842;29;20102;-81
2022/05/09 17:12:38;;;;;;;5.28;3.55;;;;;;;;;;4954619;29;20050;-81
2022/05/09 17:15:07;;;;;;;5.55;3.72;;;;;;;;;;4954685;29;20063;-81
2022/05/09 17:17:38;;;;;;;3.10;2.90;;;;;;;;;;4937974;29;20137;-81
2022/05/09 17:20:04;;;;;;;3.50;3.20;;;;;;;;;;4955577;29;20186;-80
2022/05/09 17:22:30;;;;;;;5.03;3.78;;;;;;;;;;4954747;29;20039;-82
2022/05/09 17:24:56;;;;;;;3.88;3.53;;;;;;;;;;4954370;29;20070;-81
2022/05/09 17:27:22;;;;;;;4.32;3.92;;;;;;;;;;4953829;29;20343;-81
2022/05/09 17:29:48;;;;;;;4.25;3.95;;;;;;;;;;4936513;29;20050;-80
2022/05/09 17:32:24;;;;;;;4.50;4.10;;;;;;;;;;4936725;29;20127;-80
2022/05/09 17:34:50;;;;;;;4.53;2.63;;;;;;;;;;4936706;29;20059;-80
2022/05/09 17:37:18;;;;;;;4.70;2.90;;;;;;;;;;4952847;29;20541;-80
2022/05/09 17:39:48;;;;;;;2.90;2.70;;;;;;;;;;4953281;29;20063;-82
2022/05/09 17:42:16;;;;;;;2.85;2.65;;;;;;;;;;4953361;29;20086;-81
2022/05/09 17:44:42;;;;;;;2.50;2.30;;;;;;;;;;4936109;29;20110;-81
2022/05/09 17:47:10;;;;;;;2.10;2.00;;;;;;;;;;4920939;29;20046;-80
2022/05/09 17:49:35;;;;;;;2.95;1.90;;;;;;;;;;4952904;29;20038;-81
2022/05/09 17:52:02;;;;;;;1.88;1.77;;;;;;;;;;4952868;29;20051;-82
2022/05/09 17:54:28;;;;;;;2.03;1.92;;;;;;;;;;4937596;29;20147;-82
2022/05/09 17:56:57;;;;;;;2.15;1.95;;;;;;;;;;4943671;29;20062;-83
2022/05/09 17:59:24;;;;;;;1.88;1.65;;;;;;;;;;4941769;29;20082;-82
2022/05/09 18:01:54;;;;;;;2.45;2.30;;;;;;;;;;4957177;29;20049;-83
2022/05/09 18:04:21;;;;;;;2.30;2.10;;;;;;;;;;4955080;28;20115;-82
2022/05/09 18:06:48;;;;;;;2.40;2.30;;;;;;;;;;4954860;29;20443;-80
2022/05/09 18:09:13;;;;;;;2.08;1.98;;;;;;;;;;4936106;29;20051;-81
2022/05/09 18:11:46;;;;;;;2.20;2.10;;;;;;;;;;4952994;29;20070;-82
2022/05/09 18:14:13;;;;;;;2.33;1.90;;;;;;;;;;4935834;29;20042;-81
2022/05/09 18:16:39;;;;;;;2.40;2.20;;;;;;;;;;4952584;29;20100;-81
2022/05/09 18:19:09;;;;;;;2.22;2.00;;;;;;;;;;4936080;29;20049;-82
2022/05/09 18:21:35;;;;;;;2.30;2.10;;;;;;;;;;4935218;29;20049;-82
2022/05/09 18:24:03;;;;;;;2.58;2.47;;;;;;;;;;4953469;29;20063;-81
2022/05/09 18:26:29;;;;;;;3.40;2.50;;;;;;;;;;4919722;29;20546;-81
2022/05/09 18:28:56;;;;;;;2.30;2.10;;;;;;;;;;4957378;29;20042;-87
2022/05/09 18:31:22;;;;;;;2.40;2.15;;;;;;;;;;4974381;29;20020;-87
2022/05/09 18:33:49;;;;;;;2.92;2.70;;;;;;;;;;5033749;23;20058;-85
2022/05/09 18:39:04;;;;;;;2.53;2.40;;;;;;;;;;5077588;23;20098;-86
2022/05/09 18:41:30;;;;;;;2.95;2.75;;;;;;;;;;4962177;29;20027;-85
2022/05/09 18:43:56;;;;;;;2.90;2.70;;;;;;;;;;4978016;28;20194;-87
2022/05/09 18:46:22;;;;;;;3.50;3.03;;;;;;;;;;4977945;28;20051;-86
2022/05/09 18:54:19;;;;;;;4.47;3.20;;;;;;;;;;5603111;23;20732;-82
2022/05/09 18:59:41;;;;;;;3.63;3.30;;;;;;;;;;5035492;23;20059;-88
2022/05/09 19:02:07;;;;;;;3.00;2.80;;;;;;;;;;4976473;28;20054;-85
2022/05/09 19:04:33;;;;;;;3.65;2.70;;;;;;;;;;5003827;23;20102;-77
2022/05/09 19:06:59;;;;;;;3.95;3.40;;;;;;;;;;4948485;28;20031;-78
2022/05/09 19:09:28;;;;;;;3.63;3.33;;;;;;;;;;4959380;28;20039;-79
2022/05/09 19:11:55;;;;;;;5.10;3.60;;;;;;;;;;4961014;28;20090;-70
2022/05/09 19:14:25;;;;;;;4.63;4.22;;;;;;;;;;4959884;28;20118;-70
2022/05/09 19:16:52;;;;;;;;;;;;;;;;;;4960366;28;20518;-73
2022/05/09 19:19:18;;;;;;;3.60;3.30;;;;;;;;;;4958274;28;20206;-72
2022/05/09 19:21:46;;;;;;;6.35;5.85;;;;;;;;;;4961130;28;20039;-72
2022/05/09 19:24:13;;;;;;;8.77;7.70;;;;;;;;;;4958764;28;20058;-72
2022/05/09 19:26:40;;;;;;;11.32;6.00;;;;;;;;;;4955796;28;20035;-72
2022/05/09 19:29:09;;;;;;;8.50;7.60;;;;;;;;;;4949966;29;20043;-72
2022/05/09 19:31:35;;;;;;;7.03;6.25;;;;;;;;;;4948664;29;20038;-72
2022/05/09 19:34:05;;;;;;;4.67;4.37;;;;;;;;;;4928496;29;20067;-72
2022/05/09 19:36:32;;;;;;;3.33;3.03;;;;;;;;;;4947124;29;20054;-72
2022/05/09 19:38:58;;;;;;;4.03;3.72;;;;;;;;;;4930714;29;20088;-72
2022/05/09 19:41:33;;;;;;;3.30;3.00;;;;;;;;;;4949881;29;20506;-72
2022/05/09 19:44:02;;;;;;;3.65;3.40;;;;;;;;;;4899885;29;20044;-72
2022/05/09 19:46:30;;;;;;;3.40;3.10;;;;;;;;;;4929788;29;20152;-72
2022/05/09 19:48:57;;;;;;;3.90;3.60;;;;;;;;;;4917326;28;20038;-72
2022/05/09 19:51:25;;;;;;;3.60;3.38;;;;;;;;;;4916783;29;20051;-71
2022/05/09 19:54:07;;;;;;;4.20;3.97;;;;;;;;;;4947245;29;20055;-71
2022/05/09 19:56:33;;;;;;;4.15;3.60;;;;;;;;;;4949228;29;20052;-71
2022/05/09 19:58:59;;;;;;;5.15;3.97;;;;;;;;;;4930124;28;20409;-72
2022/05/09 20:01:25;;;;;;;4.72;3.40;;;;;;;;;;4925121;29;20119;-71
2022/05/09 20:03:54;;;;;;;16.77;9.75;;;;;;;;;;4938478;28;20145;-71
2022/05/09 20:06:20;;;;;;;19.83;11.48;;;;;;;;;;4942680;29;20063;-71
2022/05/09 20:08:46;;;;;;;7.93;6.25;;;;;;;;;;4926890;28;20042;-71
2022/05/09 20:11:14;;;;;;;5.05;4.03;;;;;;;;;;4943458;28;20062;-71
2022/05/09 20:13:41;;;;;;;2.92;2.72;;;;;;;;;;4924608;29;20158;-72
2022/05/09 20:16:09;;;;;;;2.80;2.58;;;;;;;;;;4928059;28;20432;-71
2022/05/09 20:18:35;;;;;;;6.20;2.63;;;;;;;;;;4928507;29;20040;-71
2022/05/09 20:21:01;;;;;;;2.40;2.20;;;;;;;;;;4941334;29;20081;-71
2022/05/09 20:23:27;;;;;;;2.60;2.40;;;;;;;;;;4919004;29;20050;-71
2022/05/09 20:31:35;;;;;;;2.35;2.25;;;;;;;;;;4941436;29;20046;-74
2022/05/09 20:34:00;;;;;;;2.30;2.20;;;;;;;;;;4922614;29;20048;-73
2022/05/09 20:36:27;;;;;;;4.05;2.30;;;;;;;;;;4945182;29;20440;-71
2022/05/09 20:38:56;;;;;;;2.58;2.28;;;;;;;;;;4942516;29;20106;-72
2022/05/09 20:41:21;;;;;;;2.00;1.90;;;;;;;;;;4944993;29;20099;-72
2022/05/09 20:43:49;;;;;;;2.40;2.10;;;;;;;;;;4930273;29;20043;-72
2022/05/09 20:46:17;;;;;;;3.10;2.35;;;;;;;;;;4943237;29;20047;-72
2022/05/09 20:48:43;;;;;;;2.35;2.05;;;;;;;;;;4928561;29;20557;-73
2022/05/09 20:51:08;;;;;;;2.00;1.90;;;;;;;;;;4922248;29;20044;-72
2022/05/09 20:53:34;;;;;;;4.25;2.20;;;;;;;;;;4939863;29;20050;-72
2022/05/09 20:56:01;;;;;;;1.92;1.83;;;;;;;;;;4942063;29;20048;-72
2022/05/09 20:58:27;;;;;;;2.30;2.10;;;;;;;;;;4920704;29;20549;-72
2022/05/09 21:00:55;;;;;;;2.95;2.25;;;;;;;;;;4947041;29;20054;-72
2022/05/09 21:03:21;;;;;;;3.22;1.95;;;;;;;;;;4927227;29;20059;-72
2022/05/09 21:05:47;;;;;;;2.67;2.00;;;;;;;;;;4938015;29;20059;-73
2022/05/09 21:08:17;;;;;;;3.13;1.80;;;;;;;;;;4923301;29;20055;-71
2022/05/09 21:10:43;;;;;;;3.38;2.33;;;;;;;;;;4938545;29;20048;-71
2022/05/09 21:13:09;;;;;;;2.72;2.30;;;;;;;;;;4951482;29;20039;-80
2022/05/09 21:15:35;;;;;;;4.43;2.22;;;;;;;;;;4952389;29;20130;-80
2022/05/09 21:18:01;;;;;;;1.83;1.73;;;;;;;;;;4934742;29;20534;-81
2022/05/09 21:20:27;;;;;;;3.90;1.60;;;;;;;;;;4952897;29;20046;-80
2022/05/09 21:22:53;;;;;;;3.38;2.03;;;;;;;;;;4951830;29;20063;-82
2022/05/09 21:25:23;;;;;;;2.30;2.10;;;;;;;;;;4952776;29;20164;-80
2022/05/09 21:27:50;;;;;;;2.00;1.90;;;;;;;;;;4935493;29;20477;-79
2022/05/09 21:30:16;;;;;;;1.95;1.75;;;;;;;;;;4935858;29;20049;-81
2022/05/09 21:32:44;;;;;;;1.75;1.70;;;;;;;;;;4952510;29;20061;-81
2022/05/09 21:35:10;;;;;;;1.75;1.65;;;;;;;;;;4940663;29;20047;-79
2022/05/09 21:37:36;;;;;;;2.05;1.95;;;;;;;;;;4940875;29;20046;-79
2022/05/09 21:42:47;;;;;;;2.35;1.90;;;;;;;;;;4951922;29;20047;-80
2022/05/09 21:45:13;;;;;;;2.78;1.73;;;;;;;;;;4937895;28;20059;-79
2022/05/09 21:47:39;;;;;;;5.10;3.83;;;;;;;;;;4924853;29;20047;-80
2022/05/09 21:50:06;;;;;;;1.77;1.63;;;;;;;;;;4932717;29;20589;-80
2022/05/09 21:52:33;;;;;;;1.85;1.75;;;;;;;;;;4932600;29;20054;-80
2022/05/09 21:55:00;;;;;;;1.75;1.50;;;;;;;;;;4916616;29;20527;-81
2022/05/09 21:57:26;;;;;;;1.63;1.52;;;;;;;;;;4933203;29;20043;-81
2022/05/09 21:59:52;;;;;;;4.05;1.65;;;;;;;;;;4933398;29;20203;-80
2022/05/09 22:02:18;;;;;;;1.83;1.73;;;;;;;;;;4934671;29;20050;-80
2022/05/09 22:04:46;;;;;;;1.98;1.50;;;;;;;;;;4951690;29;20065;-80
2022/05/09 22:07:12;;;;;;;2.30;1.75;;;;;;;;;;4946047;29;20526;-79
2022/05/09 22:09:39;;;;;;;1.88;1.60;;;;;;;;;;4951884;29;20456;-80
2022/05/09 22:12:07;;;;;;;1.50;1.40;;;;;;;;;;4934831;29;20070;-80
2022/05/09 22:14:32;;;;;;;1.55;1.50;;;;;;;;;;4952113;29;20134;-79
2022/05/09 22:16:59;;;;;;;1.75;1.40;;;;;;;;;;4924160;29;20094;-80
2022/05/09 22:19:26;;;;;;;2.00;1.90;;;;;;;;;;4949499;29;20053;-81
2022/05/09 22:21:53;;;;;;;1.55;1.45;;;;;;;;;;4951933;29;20043;-79
2022/05/09 22:24:19;;;;;;;2.17;2.08;;;;;;;;;;4934706;29;20047;-80
2022/05/09 22:26:45;;;;;;;1.90;1.80;;;;;;;;;;4934513;29;20043;-79
2022/05/09 22:29:33;;;;;;;2.00;1.45;;;;;;;;;;4951557;29;20050;-79
2022/05/09 22:31:59;;;;;;;2.05;1.80;;;;;;;;;;4936925;29;20043;-79
2022/05/09 22:34:25;;;;;;;1.50;1.40;;;;;;;;;;4932630;29;20043;-79
2022/05/09 22:36:53;;;;;;;1.75;1.30;;;;;;;;;;4930981;29;20094;-80
2022/05/09 22:39:19;;;;;;;2.45;1.80;;;;;;;;;;4932261;29;20043;-79
2022/05/09 22:41:45;;;;;;;1.65;1.55;;;;;;;;;;4932216;29;20318;-80
2022/05/09 22:44:11;;;;;;;1.60;1.23;;;;;;;;;;4899260;29;20323;-79
2022/05/09 22:46:37;;;;;;;1.77;1.67;;;;;;;;;;4914933;29;20074;-79
2022/05/09 22:49:06;;;;;;;1.50;1.50;;;;;;;;;;4931705;29;20384;-79
2022/05/09 22:51:32;;;;;;;2.03;1.80;;;;;;;;;;4915398;29;20151;-79
2022/05/09 22:53:57;;;;;;;1.85;1.75;;;;;;;;;;4931704;29;20104;-78
2022/05/09 22:56:23;;;;;;;4.72;2.05;;;;;;;;;;4915075;29;20431;-79
2022/05/09 22:58:49;;;;;;;2.22;1.80;;;;;;;;;;4931607;29;20111;-79
2022/05/09 23:01:31;;;;;;;1.58;1.55;;;;;;;;;;4941021;29;20519;-80
2022/05/09 23:03:57;;;;;;;1.83;1.73;;;;;;;;;;4951361;29;20434;-82
2022/05/09 23:06:23;;;;;;;2.10;1.92;;;;;;;;;;4951856;29;20110;-81
2022/05/09 23:08:49;;;;;;;2.13;1.70;;;;;;;;;;4934914;29;20038;-80
2022/05/09 23:11:16;;;;;;;1.63;1.52;;;;;;;;;;4953819;29;20115;-80
2022/05/09 23:13:42;;;;;;;2.05;1.55;;;;;;;;;;4953242;29;20062;-81
2022/05/09 23:16:08;;;;;;;3.53;1.30;;;;;;;;;;4953457;29;20058;-79
2022/05/09 23:18:35;;;;;;;1.70;1.60;;;;;;;;;;4952550;29;20043;-82
2022/05/09 23:21:01;;;;;;;1.42;1.42;;;;;;;;;;4945434;29;20051;-81
2022/05/09 23:23:27;;;;;;;1.40;1.30;;;;;;;;;;4934194;29;20046;-79
2022/05/09 23:25:52;;;;;;;1.35;1.25;;;;;;;;;;4951200;29;20142;-80
2022/05/09 23:28:19;;;;;;;1.52;1.42;;;;;;;;;;4951691;29;20542;-81
2022/05/09 23:30:46;;;;;;;1.25;1.25;;;;;;;;;;4941091;29;20071;-83
2022/05/09 23:33:13;;;;;;;1.70;1.60;;;;;;;;;;4934999;29;20040;-82
2022/05/09 23:35:38;;;;;;;1.98;1.50;;;;;;;;;;4946370;29;20054;-82
2022/05/09 23:38:04;;;;;;;1.60;1.50;;;;;;;;;;4931905;29;20040;-81
2022/05/09 23:40:30;;;;;;;1.70;1.60;;;;;;;;;;4909220;29;20039;-80
2022/05/09 23:42:57;;;;;;;1.50;1.40;;;;;;;;;;4923314;29;20048;-82
2022/05/09 23:45:23;;;;;;;1.60;1.50;;;;;;;;;;4945621;29;20085;-80
2022/05/09 23:47:50;;;;;;;1.35;1.35;;;;;;;;;;4933492;29;20118;-80
2022/05/09 23:50:17;;;;;;;1.50;1.40;;;;;;;;;;4951412;29;20431;-80
2022/05/09 23:52:43;;;;;;;1.70;1.60;;;;;;;;;;4950609;29;20426;-81
2022/05/09 23:55:09;;;;;;;1.65;1.55;;;;;;;;;;4951222;29;20043;-81
2022/05/09 23:57:36;;;;;;;1.60;1.50;;;;;;;;;;4933437;29;20081;-80
